createdAt,value
2023-04-11T00:04:08.306Z,3.20
2023-04-11T00:09:18.530Z,2.78
2023-04-11T00:14:21.104Z,2.92
2023-04-11T00:19:25.530Z,3.95
2023-04-11T00:24:28.065Z,3.97
2023-04-11T00:29:30.812Z,3.35
2023-04-11T00:34:52.162Z,3.90
2023-04-11T00:39:56.452Z,5.63
2023-04-11T00:44:59.074Z,5.15
2023-04-11T00:50:03.936Z,4.95
2023-04-11T00:55:08.199Z,5.35
2023-04-11T01:00:12.251Z,4.13
2023-04-11T01:05:34.602Z,5.85
2023-04-11T01:10:38.366Z,5.80
2023-04-11T01:15:41.137Z,7.30
2023-04-11T01:20:44.540Z,5.43
2023-04-11T01:25:47.705Z,4.20
2023-04-11T01:30:50.564Z,4.82
2023-04-11T01:35:53.266Z,6.57
2023-04-11T01:40:59.831Z,6.00
2023-04-11T01:46:21.991Z,4.18
2023-04-11T01:51:24.766Z,4.27
2023-04-11T01:56:27.953Z,5.25
2023-04-11T02:01:30.668Z,5.65
2023-04-11T02:06:33.835Z,3.55
2023-04-11T02:11:36.896Z,4.00
2023-04-11T02:16:56.799Z,2.60
2023-04-11T02:21:59.420Z,1.70
2023-04-11T02:27:04.303Z,2.22
2023-04-11T02:32:06.987Z,2.75
2023-04-11T02:37:10.258Z,2.63
2023-04-11T02:42:14.650Z,2.50
2023-04-11T02:47:19.782Z,2.73
2023-04-11T02:52:22.641Z,2.78
2023-04-11T02:57:26.245Z,2.60
2023-04-11T03:02:31.575Z,3.25
2023-04-11T03:07:38.489Z,2.65
2023-04-11T03:12:41.292Z,2.30
2023-04-11T03:17:47.025Z,2.42
2023-04-11T03:22:50.955Z,2.40
2023-04-11T03:27:55.279Z,2.85
2023-04-11T03:33:01.295Z,2.88
2023-04-11T03:38:05.762Z,2.30
2023-04-11T03:43:27.221Z,1.70
2023-04-11T03:48:31.064Z,2.42
2023-04-11T03:53:38.578Z,2.20
2023-04-11T03:58:56.750Z,3.05
2023-04-11T04:04:05.876Z,2.00
2023-04-11T04:09:12.496Z,2.70
2023-04-11T04:14:23.669Z,3.28
2023-04-11T04:19:27.761Z,2.80
2023-04-11T04:24:31.982Z,2.92
2023-04-11T04:30:03.556Z,2.70
2023-04-11T04:35:19.905Z,2.78
2023-04-11T04:40:24.137Z,2.38
2023-04-11T04:45:33.992Z,1.98
2023-04-11T04:50:37.943Z,2.58
2023-04-11T04:55:41.236Z,2.60
2023-04-11T05:00:45.338Z,2.83
2023-04-11T05:05:56.878Z,2.42
2023-04-11T05:16:07.102Z,3.20
2023-04-11T05:21:12.855Z,2.17
2023-04-11T05:26:19.179Z,2.38
2023-04-11T05:31:24.407Z,1.75
2023-04-11T05:36:28.412Z,2.15
2023-04-11T05:41:31.261Z,2.37
2023-04-11T05:46:37.307Z,1.92
2023-04-11T05:51:40.539Z,2.50
2023-04-11T05:56:44.331Z,2.75
2023-04-11T06:01:47.268Z,2.73
2023-04-11T06:06:51.676Z,2.90
2023-04-11T06:11:54.519Z,3.38
2023-04-11T06:16:58.972Z,1.60
2023-04-11T06:22:03.807Z,2.80
2023-04-11T06:27:10.059Z,2.00
2023-04-11T06:32:13.102Z,2.58
2023-04-11T06:37:15.951Z,3.10
2023-04-11T06:42:18.587Z,3.10
2023-04-11T06:47:21.700Z,2.67
2023-04-11T06:52:25.388Z,2.85
2023-04-11T06:57:29.586Z,2.50
2023-04-11T07:02:34.658Z,2.63
2023-04-11T07:07:37.968Z,3.05
2023-04-11T07:12:40.476Z,1.75
2023-04-11T07:17:43.101Z,1.98
2023-04-11T07:22:46.124Z,2.95
2023-04-11T07:27:54.121Z,3.20
2023-04-11T07:32:56.857Z,2.72
2023-04-11T07:38:01.208Z,2.78
2023-04-11T07:43:04.316Z,2.17
2023-04-11T07:48:09.138Z,3.00
2023-04-11T07:53:32.873Z,3.00
2023-04-11T07:58:35.453Z,2.70
2023-04-11T08:03:39.157Z,2.90
2023-04-11T08:08:44.480Z,2.63
2023-04-11T08:13:47.460Z,3.08
2023-04-11T08:18:50.069Z,1.92
2023-04-11T08:23:52.894Z,1.70
2023-04-11T08:28:56.027Z,2.30
2023-04-11T08:34:02.646Z,2.53
2023-04-11T08:39:07.823Z,1.88
2023-04-11T08:44:12.505Z,2.78
2023-04-11T08:49:15.270Z,2.22
2023-04-11T08:54:17.866Z,2.33
2023-04-11T08:59:20.487Z,2.30
2023-04-11T09:04:40.592Z,2.42
2023-04-11T09:09:43.716Z,2.13
2023-04-11T09:14:46.636Z,1.85
2023-04-11T09:19:49.780Z,2.40
2023-04-11T09:25:03.667Z,1.95
2023-04-11T09:30:18.080Z,2.80
2023-04-11T09:35:26.020Z,2.00
2023-04-11T09:40:31.853Z,1.92
2023-04-11T09:45:44.195Z,2.10
2023-04-11T09:50:58.573Z,2.42
2023-04-11T09:56:02.222Z,2.10
2023-04-11T10:01:10.614Z,1.90
2023-04-11T10:06:20.842Z,2.03
2023-04-11T10:11:24.454Z,2.42
2023-04-11T10:16:28.787Z,2.30
2023-04-11T10:21:32.810Z,1.70
2023-04-11T10:26:49.196Z,1.67
2023-04-11T10:32:11.669Z,2.17
2023-04-11T10:37:14.428Z,1.80
2023-04-11T10:42:29.923Z,2.17
2023-04-11T10:47:35.217Z,1.95
2023-04-11T10:52:39.650Z,1.60
2023-04-11T10:58:08.259Z,1.90
2023-04-11T11:03:16.518Z,2.00
2023-04-11T11:08:31.338Z,1.50
2023-04-11T11:13:49.745Z,1.88
2023-04-11T11:18:59.112Z,2.03
2023-04-11T11:24:03.621Z,1.83
2023-04-11T11:29:08.018Z,3.15
2023-04-11T11:39:16.180Z,2.47
2023-04-11T11:44:26.047Z,2.35
2023-04-11T11:49:53.128Z,2.00
2023-04-11T11:54:56.416Z,2.00
2023-04-11T12:00:06.368Z,2.28
2023-04-11T12:05:11.657Z,2.40
2023-04-11T12:10:17.144Z,2.80
2023-04-11T12:15:21.300Z,2.20
2023-04-11T12:20:24.664Z,2.10
2023-04-11T12:25:28.070Z,2.35
2023-04-11T12:30:30.729Z,2.03
2023-04-11T12:35:35.794Z,2.22
2023-04-11T12:40:38.297Z,2.08
2023-04-11T12:45:40.969Z,2.47
2023-04-11T12:50:43.604Z,1.85
2023-04-11T12:55:46.231Z,2.33
2023-04-11T13:00:48.972Z,2.50
2023-04-11T13:05:51.557Z,2.65
2023-04-11T13:10:58.790Z,2.17
2023-04-11T13:16:01.666Z,2.55
2023-04-11T13:21:04.518Z,2.30
2023-04-11T13:26:09.469Z,2.30
2023-04-11T13:31:14.101Z,2.17
2023-04-11T13:36:17.031Z,3.00
2023-04-11T13:41:20.055Z,2.30
2023-04-11T13:46:23.275Z,2.23
2023-04-11T13:51:27.243Z,2.22
2023-04-11T13:56:30.382Z,1.95
2023-04-11T14:01:34.694Z,2.23
2023-04-11T14:06:37.687Z,2.25
2023-04-11T14:11:41.461Z,2.13
2023-04-11T14:16:44.120Z,2.88
2023-04-11T14:22:05.742Z,2.00
2023-04-11T14:27:08.661Z,2.07
2023-04-11T14:32:11.499Z,1.30
2023-04-11T14:37:15.087Z,2.33
2023-04-11T14:42:17.807Z,2.10
2023-04-11T14:47:20.390Z,1.90
2023-04-11T14:52:26.895Z,1.95
2023-04-11T15:02:57.886Z,1.58
2023-04-11T15:08:08.090Z,1.67
2023-04-11T15:13:13.018Z,2.00
2023-04-11T15:18:27.920Z,1.70
2023-04-11T15:23:31.869Z,2.00
2023-04-11T15:28:36.631Z,1.90
2023-04-11T15:33:39.880Z,2.00
2023-04-11T15:39:01.029Z,1.98
2023-04-11T15:44:05.097Z,1.67
2023-04-11T15:49:08.255Z,2.20
2023-04-11T15:54:11.456Z,2.83
2023-04-11T15:59:18.447Z,2.07
2023-04-11T16:04:21.221Z,2.05
2023-04-11T16:09:42.669Z,1.85
2023-04-11T16:14:47.015Z,1.80
2023-04-11T16:19:53.244Z,1.77
2023-04-11T16:24:56.645Z,1.92
2023-04-11T16:30:03.127Z,1.52
2023-04-11T16:35:06.222Z,1.73
2023-04-11T16:40:13.274Z,1.55
2023-04-11T16:45:17.418Z,1.50
2023-04-11T16:50:20.179Z,1.60
2023-04-11T16:55:41.611Z,1.52
2023-04-11T17:00:46.031Z,2.05
2023-04-11T17:05:50.391Z,2.25
2023-04-11T17:10:53.740Z,2.40
2023-04-11T17:15:56.393Z,2.13
2023-04-11T17:21:00.025Z,2.28
2023-04-11T17:26:04.531Z,2.03
2023-04-11T17:31:14.459Z,2.28
2023-04-11T17:36:19.116Z,1.95
2023-04-11T17:41:22.138Z,2.42
2023-04-11T17:46:26.304Z,2.15
2023-04-11T17:51:31.474Z,2.20
2023-04-11T17:56:36.027Z,2.80
2023-04-11T18:01:39.932Z,4.82
2023-04-11T18:06:42.797Z,4.80
2023-04-11T18:11:45.826Z,5.70
2023-04-11T18:16:48.439Z,4.55
2023-04-11T18:21:51.992Z,4.45
2023-04-11T18:31:57.982Z,3.90
2023-04-11T18:37:00.815Z,3.47
2023-04-11T18:42:04.057Z,3.97
2023-04-11T18:47:10.526Z,4.43
2023-04-11T18:52:16.347Z,4.45
2023-04-11T18:57:20.822Z,4.85
2023-04-11T19:07:27.453Z,3.38
2023-04-11T19:12:30.300Z,3.47
2023-04-11T19:17:38.559Z,3.80
2023-04-11T19:22:42.210Z,3.80
2023-04-11T19:27:46.997Z,3.85
2023-04-11T19:32:50.673Z,4.68
2023-04-11T19:37:54.104Z,4.15
2023-04-11T19:42:57.103Z,4.20
2023-04-11T19:48:00.529Z,4.43
2023-04-11T19:53:03.357Z,4.43
2023-04-11T19:58:07.296Z,4.35
2023-04-11T20:03:14.676Z,4.88
2023-04-11T20:08:18.920Z,4.65
2023-04-11T20:13:21.812Z,5.53
2023-04-11T20:18:24.669Z,4.38
2023-04-11T20:23:31.337Z,4.80
2023-04-11T20:28:34.222Z,4.07
2023-04-11T20:33:37.160Z,3.78
2023-04-11T20:38:40.869Z,4.10
2023-04-11T20:43:43.650Z,4.30
2023-04-11T20:48:47.262Z,5.32
2023-04-11T20:53:51.945Z,5.20
2023-04-11T20:58:54.714Z,4.38
2023-04-11T21:03:57.600Z,5.07
2023-04-11T21:09:01.120Z,4.57
2023-04-11T21:14:06.090Z,6.20
2023-04-11T21:24:11.067Z,3.97
2023-04-11T21:29:14.265Z,4.10
2023-04-11T21:34:16.910Z,3.60
2023-04-11T21:39:19.624Z,3.70
2023-04-11T21:44:22.243Z,4.40
2023-04-11T21:49:25.606Z,3.42
2023-04-11T21:54:28.173Z,3.40
2023-04-11T21:59:30.726Z,3.30
2023-04-11T22:04:47.507Z,3.95
2023-04-11T22:09:59.635Z,3.70
2023-04-11T22:15:03.971Z,3.08
2023-04-11T22:20:09.366Z,3.70
2023-04-11T22:25:12.054Z,3.63
2023-04-11T22:30:14.796Z,3.35
2023-04-11T22:35:18.012Z,2.63
2023-04-11T22:40:22.395Z,3.60
2023-04-11T22:45:25.112Z,3.50
2023-04-11T22:50:28.213Z,3.63
2023-04-11T22:55:35.010Z,3.15
2023-04-11T23:00:38.501Z,3.63
2023-04-11T23:05:42.443Z,2.70
2023-04-11T23:10:45.071Z,2.83
2023-04-11T23:15:48.392Z,2.78
2023-04-11T23:20:51.178Z,3.33
2023-04-11T23:25:54.277Z,3.80
2023-04-11T23:30:56.846Z,3.47
2023-04-11T23:35:59.469Z,4.10
2023-04-11T23:41:02.037Z,3.30
2023-04-11T23:46:05.314Z,3.63
2023-04-11T23:51:08.347Z,3.35
2023-04-11T23:56:11.128Z,3.13
